^^
Your Local Weather - Clay, NY Station Historical Data
Daily Summary for January 29, 2018 Units:  English    Metric   Both
« Previous Day
Next Day »
Daily Weekly Monthly Yearly Custom
  High: Low: Average:
Temperature: 34.7 °F 23.7 °F 28.5 °F
Dew Point: 28.1 °F 20.2 °F 23.7 °F
Humidity: 91% 66% 83%
Wind Speed: 4.0mph 0.0mph 0.4mph
Wind Gust: 8.0mph - -
Wind- - West
Pressure: 30.30 in 30.02 in -
Precipitation: 0.00 in    
Historical Graphs
 
 
Tabular Data for January 29, 2018
Time Temperature Dew Point Pressure Wind Wind Speed Wind Gust Humidity Rainfall Rate (Hourly) solar
00:04 27.8 °F 25.0 °F 30.29 in Calm     89% 0.00 in 0 W/m2
00:10 27.7 °F 24.9 °F 30.30 in Calm     89% 0.00 in 0 W/m2
00:16 27.7 °F 24.9 °F 30.30 in Calm     89% 0.00 in 0 W/m2
00:22 27.7 °F 24.9 °F 30.29 in Calm     89% 0.00 in 0 W/m2
00:28 27.6 °F 24.8 °F 30.29 in Calm     89% 0.00 in 0 W/m2
00:34 27.7 °F 24.9 °F 30.29 in Calm     89% 0.00 in 0 W/m2
00:40 27.8 °F 25.0 °F 30.28 in Calm     89% 0.00 in 0 W/m2
00:46 28.0 °F 25.2 °F 30.28 in Calm     89% 0.00 in 0 W/m2
00:52 28.2 °F 25.6 °F 30.28 in Calm     90% 0.00 in 0 W/m2
00:58 28.3 °F 25.7 °F 30.28 in Calm     90% 0.00 in 0 W/m2
01:04 28.3 °F 25.7 °F 30.28 in Calm     90% 0.00 in 0 W/m2
01:10 28.2 °F 25.6 °F 30.28 in Calm     90% 0.00 in 0 W/m2
01:16 28.1 °F 25.5 °F 30.28 in Calm     90% 0.00 in 0 W/m2
01:22 28.1 °F 25.5 °F 30.28 in Calm     90% 0.00 in 0 W/m2
01:28 27.9 °F 25.1 °F 30.28 in Calm     89% 0.00 in 0 W/m2
01:34 27.8 °F 25.0 °F 30.28 in Calm     89% 0.00 in 0 W/m2
01:40 27.7 °F 25.2 °F 30.28 in Calm     90% 0.00 in 0 W/m2
01:46 27.5 °F 25.0 °F 30.28 in Calm     90% 0.00 in 0 W/m2
01:52 27.3 °F 24.5 °F 30.28 in Calm     89% 0.00 in 0 W/m2
01:58 27.1 °F 24.6 °F 30.28 in Calm     90% 0.00 in 0 W/m2
02:04 26.9 °F 24.1 °F 30.29 in Calm     89% 0.00 in 0 W/m2
02:10 26.7 °F 23.9 °F 30.29 in Calm     89% 0.00 in 0 W/m2
02:16 26.6 °F 24.1 °F 30.29 in Calm     90% 0.00 in 0 W/m2
02:22 26.4 °F 23.9 °F 30.29 in Calm     90% 0.00 in 0 W/m2
02:28 26.3 °F 23.8 °F 30.29 in Calm     90% 0.00 in 0 W/m2
02:34 26.2 °F 23.7 °F 30.29 in Calm     90% 0.00 in 0 W/m2
02:40 26.2 °F 23.7 °F 30.29 in Calm     90% 0.00 in 0 W/m2
02:46 26.3 °F 23.8 °F 30.29 in Calm     90% 0.00 in 0 W/m2
02:52 26.4 °F 23.9 °F 30.29 in Calm     90% 0.00 in 0 W/m2
02:58 26.5 °F 24.0 °F 30.29 in Calm     90% 0.00 in 0 W/m2
03:04 26.5 °F 24.0 °F 30.29 in Calm     90% 0.00 in 0 W/m2
03:10 26.6 °F 24.1 °F 30.29 in Calm     90% 0.00 in 0 W/m2
03:16 26.6 °F 24.1 °F 30.28 in Calm     90% 0.00 in 0 W/m2
03:22 26.7 °F 24.2 °F 30.28 in Calm     90% 0.00 in 0 W/m2
03:28 26.7 °F 24.2 °F 30.27 in Calm     90% 0.00 in 0 W/m2
03:34 26.6 °F 24.1 °F 30.28 in Calm     90% 0.00 in 0 W/m2
03:40 26.6 °F 24.1 °F 30.27 in Calm     90% 0.00 in 0 W/m2
03:46 26.6 °F 24.1 °F 30.27 in Calm     90% 0.00 in 0 W/m2
03:52 26.5 °F 24.0 °F 30.27 in Calm     90% 0.00 in 0 W/m2
03:58 26.4 °F 23.9 °F 30.27 in Calm     90% 0.00 in 0 W/m2
04:04 26.3 °F 23.8 °F 30.27 in Calm     90% 0.00 in 0 W/m2
04:10 26.3 °F 23.8 °F 30.27 in Calm   1.0 mph 90% 0.00 in 0 W/m2
04:16 26.4 °F 23.9 °F 30.27 in Calm   1.0 mph 90% 0.00 in 0 W/m2
04:22 26.3 °F 23.8 °F 30.27 in Calm     90% 0.00 in 0 W/m2
04:28 26.2 °F 23.7 °F 30.27 in Calm     90% 0.00 in 0 W/m2
04:34 26.1 °F 23.6 °F 30.27 in Calm     90% 0.00 in 0 W/m2
04:40 26.0 °F 23.5 °F 30.27 in Calm     90% 0.00 in 0 W/m2
04:46 25.8 °F 23.3 °F 30.27 in Calm     90% 0.00 in 0 W/m2
04:52 25.7 °F 23.2 °F 30.27 in Calm     90% 0.00 in 0 W/m2
04:58 25.4 °F 22.9 °F 30.27 in Calm     90% 0.00 in 0 W/m2
05:04 25.1 °F 22.6 °F 30.27 in Calm     90% 0.00 in 0 W/m2
05:10 25.0 °F 22.5 °F 30.27 in Calm   1.0 mph 90% 0.00 in 0 W/m2
05:16 24.7 °F 22.2 °F 30.27 in Calm   1.0 mph 90% 0.00 in 0 W/m2
05:22 24.6 °F 22.1 °F 30.27 in Calm     90% 0.00 in 0 W/m2
05:28 24.4 °F 21.9 °F 30.27 in Calm     90% 0.00 in 0 W/m2
05:34 24.3 °F 21.8 °F 30.27 in Calm     90% 0.00 in 0 W/m2
05:40 24.1 °F 21.6 °F 30.27 in Calm     90% 0.00 in 0 W/m2
05:46 24.0 °F 21.5 °F 30.27 in Calm     90% 0.00 in 0 W/m2
05:52 24.0 °F 21.5 °F 30.27 in Calm     90% 0.00 in 0 W/m2
05:58 24.0 °F 21.5 °F 30.27 in Calm     90% 0.00 in 0 W/m2
06:04 24.0 °F 21.5 °F 30.28 in Calm     90% 0.00 in 0 W/m2
06:10 24.1 °F 21.9 °F 30.28 in Calm     91% 0.00 in 0 W/m2
06:16 24.2 °F 22.0 °F 30.28 in Calm     91% 0.00 in 0 W/m2
06:22 24.3 °F 22.1 °F 30.28 in Calm     91% 0.00 in 0 W/m2
06:28 24.4 °F 22.2 °F 30.28 in Calm     91% 0.00 in 0 W/m2
06:34 24.5 °F 22.2 °F 30.28 in Calm     91% 0.00 in 0 W/m2
06:40 24.7 °F 22.4 °F 30.29 in Calm     91% 0.00 in 0 W/m2
06:46 24.9 °F 22.6 °F 30.29 in Calm     91% 0.00 in 0 W/m2
06:52 25.0 °F 22.7 °F 30.29 in Calm     91% 0.00 in 0 W/m2
06:58 25.0 °F 22.7 °F 30.29 in Calm     91% 0.00 in 0 W/m2
07:04 25.0 °F 22.7 °F 30.29 in Calm     91% 0.00 in 0 W/m2
07:10 24.9 °F 22.6 °F 30.29 in Calm     91% 0.00 in 0 W/m2
07:16 24.7 °F 22.4 °F 30.29 in Calm     91% 0.00 in 0 W/m2
07:22 24.4 °F 22.2 °F 30.29 in Calm     91% 0.00 in 0 W/m2
07:28 24.2 °F 22.0 °F 30.29 in Calm     91% 0.00 in 5 W/m2
07:34 24.2 °F 22.0 °F 30.29 in Calm     91% 0.00 in 11 W/m2
07:40 24.0 °F 21.8 °F 30.29 in Calm     91% 0.00 in 18 W/m2
07:46 23.8 °F 21.6 °F 30.29 in Calm     91% 0.00 in 25 W/m2
07:52 23.7 °F 21.5 °F 30.29 in Calm     91% 0.00 in 35 W/m2
07:58 23.7 °F 21.5 °F 30.29 in Calm     91% 0.00 in 40 W/m2
08:04 23.8 °F 21.6 °F 30.29 in Calm     91% 0.00 in 46 W/m2
08:10 24.0 °F 21.8 °F 30.29 in Calm     91% 0.00 in 44 W/m2
08:16 24.2 °F 22.0 °F 30.29 in Calm     91% 0.00 in 53 W/m2
08:22 24.4 °F 22.2 °F 30.29 in Calm     91% 0.00 in 65 W/m2
08:28 24.9 °F 22.6 °F 30.29 in Calm     91% 0.00 in 102 W/m2
08:34 25.3 °F 23.0 °F 30.29 in Calm     91% 0.00 in 135 W/m2
08:40 25.8 °F 23.5 °F 30.29 in Calm     91% 0.00 in 120 W/m2
08:46 26.3 °F 24.0 °F 30.29 in Calm     91% 0.00 in 116 W/m2
08:52 26.8 °F 24.5 °F 30.29 in Calm     91% 0.00 in 162 W/m2
08:58 27.0 °F 24.7 °F 30.29 in Calm     91% 0.00 in 193 W/m2
09:04 27.7 °F 25.4 °F 30.29 in Calm     91% 0.00 in 251 W/m2
09:10 28.7 °F 26.4 °F 30.29 in Calm     91% 0.00 in 304 W/m2
09:16 29.4 °F 26.8 °F 30.28 in Calm     90% 0.00 in 304 W/m2
09:22 30.1 °F 26.1 °F 30.28 in Calm     85% 0.00 in 283 W/m2
09:28 30.7 °F 26.1 °F 30.28 in Calm     83% 0.00 in 301 W/m2
09:34 31.4 °F 26.2 °F 30.28 in Calm     81% 0.00 in 229 W/m2
09:40 30.8 °F 26.0 °F 30.28 in Calm     82% 0.00 in 199 W/m2
09:46 30.4 °F 25.3 °F 30.27 in Calm     81% 0.00 in 151 W/m2
09:52 29.7 °F 24.6 °F 30.27 in NNW 1.0 mph 1.0 mph 81% 0.00 in 156 W/m2
09:58 29.8 °F 25.0 °F 30.27 in NNW 1.0 mph 1.0 mph 82% 0.00 in 172 W/m2
10:04 29.9 °F 25.1 °F 30.27 in Calm   1.0 mph 82% 0.00 in 151 W/m2
10:10 29.8 °F 25.0 °F 30.27 in Calm     82% 0.00 in 172 W/m2
10:16 29.8 °F 25.0 °F 30.27 in Calm     82% 0.00 in 153 W/m2
10:22 30.0 °F 25.5 °F 30.27 in Calm     83% 0.00 in 176 W/m2
10:28 30.3 °F 25.8 °F 30.27 in NNW 1.0 mph 3.0 mph 83% 0.00 in 216 W/m2
10:34 30.6 °F 25.8 °F 30.27 in NNW 1.0 mph 1.0 mph 82% 0.00 in 213 W/m2
10:40 30.7 °F 25.9 °F 30.26 in Calm   1.0 mph 82% 0.00 in 246 W/m2
10:46 31.1 °F 26.5 °F 30.26 in Calm   2.0 mph 83% 0.00 in 248 W/m2
10:52 31.2 °F 26.3 °F 30.26 in NNW 1.0 mph 1.0 mph 82% 0.00 in 269 W/m2
10:58 31.5 °F 26.6 °F 30.26 in NNW 1.0 mph 1.0 mph 82% 0.00 in 290 W/m2
11:04 31.5 °F 26.3 °F 30.26 in NNW 1.0 mph 1.0 mph 81% 0.00 in 267 W/m2
11:10 32.0 °F 26.8 °F 30.26 in Calm     81% 0.00 in 251 W/m2
11:16 31.7 °F 26.2 °F 30.25 in Calm   2.0 mph 80% 0.00 in 227 W/m2
11:22 31.6 °F 26.4 °F 30.25 in Calm     81% 0.00 in 225 W/m2
11:28 31.8 °F 26.6 °F 30.25 in Calm     81% 0.00 in 225 W/m2
11:34 32.2 °F 27.0 °F 30.24 in Calm     81% 0.00 in 221 W/m2
11:40 32.6 °F 27.4 °F 30.24 in Calm     81% 0.00 in 213 W/m2
11:46 32.6 °F 27.1 °F 30.24 in Calm   1.0 mph 80% 0.00 in 216 W/m2
11:52 32.7 °F 26.9 °F 30.23 in Calm     79% 0.00 in 216 W/m2
11:58 32.9 °F 27.1 °F 30.23 in Calm     79% 0.00 in 213 W/m2
12:04 33.1 °F 27.3 °F 30.23 in Calm     79% 0.00 in 213 W/m2
12:10 33.1 °F 27.0 °F 30.23 in Calm     78% 0.00 in 214 W/m2
12:16 33.1 °F 27.0 °F 30.22 in NNW 1.0 mph 3.0 mph 78% 0.00 in 216 W/m2
12:22 33.0 °F 26.9 °F 30.22 in NNW 1.0 mph 1.0 mph 78% 0.00 in 211 W/m2
12:28 33.3 °F 27.5 °F 30.21 in NNW 1.0 mph 1.0 mph 79% 0.00 in 204 W/m2
12:34 33.5 °F 27.4 °F 30.21 in Calm   1.0 mph 78% 0.00 in 202 W/m2
12:40 33.7 °F 27.3 °F 30.21 in NNW 1.0 mph 1.0 mph 77% 0.00 in 211 W/m2
12:46 33.9 °F 27.4 °F 30.20 in NNW 1.0 mph 2.0 mph 77% 0.00 in 230 W/m2
12:52 34.1 °F 27.6 °F 30.20 in NNW 1.0 mph 3.0 mph 77% 0.00 in 264 W/m2
12:58 34.6 °F 28.1 °F 30.20 in NNW 1.0 mph 3.0 mph 77% 0.00 in 246 W/m2
13:04 34.7 °F 27.9 °F 30.20 in NNW 1.0 mph 2.0 mph 76% 0.00 in 230 W/m2
13:10 34.5 °F 27.7 °F 30.20 in NNW 1.0 mph 2.0 mph 76% 0.00 in 223 W/m2
13:16 34.3 °F 27.8 °F 30.19 in NNW 2.0 mph 3.0 mph 77% 0.00 in 223 W/m2
13:22 34.0 °F 27.2 °F 30.19 in NNW 2.0 mph 3.0 mph 76% 0.00 in 218 W/m2
13:28 34.2 °F 27.1 °F 30.18 in NNW 1.0 mph 3.0 mph 75% 0.00 in 214 W/m2
13:34 34.2 °F 27.1 °F 30.18 in NNW 1.0 mph 2.0 mph 75% 0.00 in 207 W/m2
13:40 34.1 °F 27.0 °F 30.18 in NNE 2.0 mph 2.0 mph 75% 0.00 in 206 W/m2
13:46 34.1 °F 27.0 °F 30.18 in East 2.0 mph 3.0 mph 75% 0.00 in 241 W/m2
13:52 34.1 °F 27.0 °F 30.17 in NNE 2.0 mph 3.0 mph 75% 0.00 in 237 W/m2
13:58 34.3 °F 26.9 °F 30.17 in NNW 2.0 mph 4.0 mph 74% 0.00 in 204 W/m2
14:04 34.3 °F 26.9 °F 30.17 in NE 2.0 mph 3.0 mph 74% 0.00 in 192 W/m2
14:10 34.3 °F 26.5 °F 30.17 in NE 2.0 mph 2.0 mph 73% 0.00 in 179 W/m2
14:16 34.3 °F 26.5 °F 30.17 in NE 2.0 mph 4.0 mph 73% 0.00 in 165 W/m2
14:22 34.1 °F 26.3 °F 30.16 in NE 2.0 mph 2.0 mph 73% 0.00 in 171 W/m2
14:28 34.3 °F 26.2 °F 30.16 in NNW 2.0 mph 3.0 mph 72% 0.00 in 169 W/m2
14:34 34.2 °F 25.4 °F 30.15 in NNW 2.0 mph 3.0 mph 70% 0.00 in 179 W/m2
14:40 34.4 °F 26.0 °F 30.15 in NNW 1.0 mph 3.0 mph 71% 0.00 in 172 W/m2
14:46 34.4 °F 26.0 °F 30.15 in North 1.0 mph 3.0 mph 71% 0.00 in 181 W/m2
14:52 34.3 °F 25.5 °F 30.15 in ENE 2.0 mph 2.0 mph 70% 0.00 in 190 W/m2
14:58 34.3 °F 25.5 °F 30.15 in ENE 1.0 mph 3.0 mph 70% 0.00 in 218 W/m2
15:04 34.5 °F 25.0 °F 30.15 in NE 1.0 mph 2.0 mph 68% 0.00 in 202 W/m2
15:10 34.6 °F 24.4 °F 30.15 in North 1.0 mph 2.0 mph 66% 0.00 in 223 W/m2
15:16 34.5 °F 24.3 °F 30.15 in NE 1.0 mph 3.0 mph 66% 0.00 in 195 W/m2
15:22 34.7 °F 25.2 °F 30.15 in NNW 2.0 mph 3.0 mph 68% 0.00 in 227 W/m2
15:28 34.4 °F 25.3 °F 30.15 in NNW 3.0 mph 5.0 mph 69% 0.00 in 193 W/m2
15:34 34.3 °F 25.2 °F 30.15 in NNW 3.0 mph 5.0 mph 69% 0.00 in 153 W/m2
15:40 34.1 °F 25.3 °F 30.15 in NW 2.0 mph 4.0 mph 70% 0.00 in 125 W/m2
15:46 33.8 °F 25.0 °F 30.15 in North 3.0 mph 4.0 mph 70% 0.00 in 146 W/m2
15:52 33.7 °F 25.0 °F 30.14 in NNW 3.0 mph 4.0 mph 70% 0.00 in 116 W/m2
15:58 33.4 °F 24.7 °F 30.14 in NNW 4.0 mph 8.0 mph 70% 0.00 in 77 W/m2
16:04 33.2 °F 24.5 °F 30.14 in NNW 4.0 mph 4.0 mph 70% 0.00 in 70 W/m2
16:10 32.9 °F 24.2 °F 30.14 in NW 3.0 mph 5.0 mph 70% 0.00 in 56 W/m2
16:16 32.6 °F 23.9 °F 30.14 in NNW 3.0 mph 5.0 mph 70% 0.00 in 56 W/m2
16:22 32.3 °F 23.9 °F 30.14 in NNW 3.0 mph 4.0 mph 71% 0.00 in 46 W/m2
16:28 31.9 °F 23.6 °F 30.14 in NNW 3.0 mph 4.0 mph 71% 0.00 in 39 W/m2
16:34 31.7 °F 23.7 °F 30.13 in NW 3.0 mph 5.0 mph 72% 0.00 in 35 W/m2
16:40 31.4 °F 23.4 °F 30.13 in NNW 3.0 mph 3.0 mph 72% 0.00 in 32 W/m2
16:46 31.2 °F 23.5 °F 30.13 in NNW 2.0 mph 4.0 mph 73% 0.00 in 28 W/m2
16:52 30.9 °F 23.3 °F 30.13 in NNW 2.0 mph 3.0 mph 73% 0.00 in 21 W/m2
16:58 30.6 °F 23.3 °F 30.12 in NW 1.0 mph 4.0 mph 74% 0.00 in 16 W/m2
17:04 30.4 °F 23.1 °F 30.12 in NNW 1.0 mph 2.0 mph 74% 0.00 in 11 W/m2
17:10 30.2 °F 22.9 °F 30.12 in NNW 1.0 mph 1.0 mph 74% 0.00 in 5 W/m2
17:16 30.1 °F 22.8 °F 30.12 in Calm   1.0 mph 74% 0.00 in 0 W/m2
17:22 29.8 °F 22.8 °F 30.12 in Calm     75% 0.00 in 0 W/m2
17:28 29.6 °F 22.6 °F 30.12 in Calm     75% 0.00 in 0 W/m2
17:34 29.5 °F 22.6 °F 30.12 in Calm     75% 0.00 in 0 W/m2
17:40 29.2 °F 22.6 °F 30.12 in Calm   1.0 mph 76% 0.00 in 0 W/m2
17:46 29.0 °F 22.4 °F 30.12 in Calm   1.0 mph 76% 0.00 in 0 W/m2
17:52 28.8 °F 22.2 °F 30.12 in Calm     76% 0.00 in 0 W/m2
17:58 28.6 °F 22.3 °F 30.12 in Calm     77% 0.00 in 0 W/m2
18:04 28.5 °F 22.2 °F 30.12 in Calm     77% 0.00 in 0 W/m2
18:10 28.3 °F 22.0 °F 30.12 in Calm     77% 0.00 in 0 W/m2
18:16 28.2 °F 21.9 °F 30.12 in Calm     77% 0.00 in 0 W/m2
18:22 28.1 °F 22.1 °F 30.12 in Calm     78% 0.00 in 0 W/m2
18:28 28.1 °F 22.1 °F 30.12 in Calm     78% 0.00 in 0 W/m2
18:34 28.1 °F 22.1 °F 30.12 in Calm     78% 0.00 in 0 W/m2
18:40 28.1 °F 22.1 °F 30.12 in Calm     78% 0.00 in 0 W/m2
18:46 28.1 °F 22.1 °F 30.12 in Calm     78% 0.00 in 0 W/m2
18:52 28.0 °F 22.0 °F 30.12 in Calm     78% 0.00 in 0 W/m2
18:58 28.0 °F 22.0 °F 30.12 in Calm     78% 0.00 in 0 W/m2
19:04 27.9 °F 21.9 °F 30.12 in Calm   1.0 mph 78% 0.00 in 0 W/m2
19:10 27.9 °F 21.9 °F 30.12 in NNW 1.0 mph 1.0 mph 78% 0.00 in 0 W/m2
19:16 28.0 °F 22.0 °F 30.12 in NNW 1.0 mph 1.0 mph 78% 0.00 in 0 W/m2
19:22 27.9 °F 21.9 °F 30.12 in Calm     78% 0.00 in 0 W/m2
19:28 27.8 °F 21.8 °F 30.12 in Calm     78% 0.00 in 0 W/m2
19:34 27.7 °F 21.7 °F 30.12 in Calm     78% 0.00 in 0 W/m2
19:40 27.6 °F 21.6 °F 30.11 in Calm     78% 0.00 in 0 W/m2
19:46 27.5 °F 21.5 °F 30.11 in Calm     78% 0.00 in 0 W/m2
19:52 27.4 °F 21.4 °F 30.11 in Calm     78% 0.00 in 0 W/m2
19:58 27.3 °F 21.3 °F 30.11 in Calm     78% 0.00 in 0 W/m2
20:04 27.2 °F 21.2 °F 30.11 in Calm     78% 0.00 in 0 W/m2
20:10 27.1 °F 21.2 °F 30.10 in Calm     78% 0.00 in 0 W/m2
20:16 26.9 °F 21.3 °F 30.10 in Calm     79% 0.00 in 0 W/m2
20:22 26.8 °F 21.2 °F 30.10 in Calm     79% 0.00 in 0 W/m2
20:28 26.7 °F 21.1 °F 30.10 in Calm     79% 0.00 in 0 W/m2
20:34 26.5 °F 21.2 °F 30.10 in Calm     80% 0.00 in 0 W/m2
20:40 26.4 °F 21.1 °F 30.09 in Calm     80% 0.00 in 0 W/m2
20:46 26.3 °F 21.3 °F 30.09 in Calm     81% 0.00 in 0 W/m2
20:52 26.1 °F 21.1 °F 30.09 in Calm     81% 0.00 in 0 W/m2
20:58 25.9 °F 20.9 °F 30.09 in Calm     81% 0.00 in 0 W/m2
21:04 25.8 °F 20.8 °F 30.08 in Calm     81% 0.00 in 0 W/m2
21:10 25.6 °F 20.9 °F 30.08 in Calm     82% 0.00 in 0 W/m2
21:16 25.6 °F 20.9 °F 30.08 in Calm     82% 0.00 in 0 W/m2
21:22 25.5 °F 20.8 °F 30.08 in Calm     82% 0.00 in 0 W/m2
21:28 25.7 °F 21.3 °F 30.08 in Calm     83% 0.00 in 0 W/m2
21:34 25.8 °F 21.3 °F 30.07 in Calm     83% 0.00 in 0 W/m2
21:40 25.8 °F 21.3 °F 30.07 in Calm     83% 0.00 in 0 W/m2
21:46 25.8 °F 21.3 °F 30.07 in Calm     83% 0.00 in 0 W/m2
21:52 25.8 °F 21.3 °F 30.07 in Calm     83% 0.00 in 0 W/m2
21:58 25.9 °F 21.4 °F 30.06 in Calm     83% 0.00 in 0 W/m2
22:04 25.9 °F 21.7 °F 30.06 in Calm     84% 0.00 in 0 W/m2
22:10 25.9 °F 21.7 °F 30.06 in Calm     84% 0.00 in 0 W/m2
22:16 25.9 °F 21.7 °F 30.06 in Calm     84% 0.00 in 0 W/m2
22:22 26.0 °F 21.8 °F 30.06 in Calm     84% 0.00 in 0 W/m2
22:28 26.0 °F 21.8 °F 30.06 in Calm     84% 0.00 in 0 W/m2
22:34 26.0 °F 21.8 °F 30.06 in Calm     84% 0.00 in 0 W/m2
22:40 26.0 °F 21.8 °F 30.05 in Calm     84% 0.00 in 0 W/m2
22:46 26.1 °F 21.9 °F 30.05 in Calm     84% 0.00 in 0 W/m2
22:52 26.0 °F 21.5 °F 30.05 in Calm     83% 0.00 in 0 W/m2
22:58 26.0 °F 21.5 °F 30.04 in Calm   1.0 mph 83% 0.00 in 0 W/m2
23:04 25.9 °F 21.4 °F 30.04 in Calm   1.0 mph 83% 0.00 in 0 W/m2
23:10 25.9 °F 21.2 °F 30.04 in Calm     82% 0.00 in 0 W/m2
23:16 25.8 °F 21.1 °F 30.04 in Calm     82% 0.00 in 0 W/m2
23:22 25.6 °F 20.9 °F 30.04 in Calm     82% 0.00 in 0 W/m2
23:28 25.5 °F 20.8 °F 30.03 in Calm     82% 0.00 in 0 W/m2
23:34 25.4 °F 20.7 °F 30.03 in Calm     82% 0.00 in 0 W/m2
23:40 25.1 °F 20.4 °F 30.03 in Calm     82% 0.00 in 0 W/m2
23:46 25.0 °F 20.3 °F 30.03 in Calm     82% 0.00 in 0 W/m2
23:52 24.8 °F 20.4 °F 30.03 in Calm     83% 0.00 in 0 W/m2
23:58 24.6 °F 20.2 °F 30.02 in Calm     83% 0.00 in 0 W/m2
Country Meadow, Clay, NY, USA
Compliments of Weather Underground - 2 mb